createdAt,value
2023-05-06T00:01:58.964Z,3.80
2023-05-06T00:04:28.208Z,4.10
2023-05-06T00:06:56.824Z,4.20
2023-05-06T00:09:25.209Z,3.70
2023-05-06T00:11:52.915Z,3.63
2023-05-06T00:14:20.735Z,3.83
2023-05-06T00:16:48.487Z,3.60
2023-05-06T00:19:16.202Z,3.70
2023-05-06T00:21:45.433Z,3.90
2023-05-06T00:24:13.130Z,4.00
2023-05-06T00:26:40.810Z,3.90
2023-05-06T00:29:08.511Z,4.37
2023-05-06T00:31:36.325Z,4.17
2023-05-06T00:34:04.110Z,4.20
2023-05-06T00:36:31.862Z,3.63
2023-05-06T00:39:00.954Z,3.63
2023-05-06T00:41:31.746Z,3.73
2023-05-06T00:43:59.435Z,3.33
2023-05-06T00:46:27.206Z,3.70
2023-05-06T00:48:55.786Z,3.20
2023-05-06T00:51:23.742Z,3.50
2023-05-06T00:53:51.531Z,3.50
2023-05-06T00:56:20.886Z,3.20
2023-05-06T00:58:49.182Z,3.23
2023-05-06T01:01:17.560Z,3.60
2023-05-06T01:03:45.687Z,3.10
2023-05-06T01:06:16.763Z,3.00
2023-05-06T01:08:48.143Z,3.20
2023-05-06T01:11:18.285Z,2.80
2023-05-06T01:13:49.729Z,3.10
2023-05-06T01:16:19.048Z,3.10
2023-05-06T01:18:46.882Z,3.37
2023-05-06T01:21:14.689Z,3.50
2023-05-06T01:23:52.743Z,3.40
2023-05-06T01:26:20.763Z,3.40
2023-05-06T01:28:48.460Z,3.50
2023-05-06T01:31:19.352Z,3.40
2023-05-06T01:33:49.407Z,3.50
2023-05-06T01:36:19.996Z,3.70
2023-05-06T01:38:51.669Z,3.60
2023-05-06T01:41:21.713Z,3.53
2023-05-06T01:43:50.475Z,3.03
2023-05-06T01:46:20.023Z,2.93
2023-05-06T01:48:50.392Z,3.80
2023-05-06T01:51:18.127Z,3.40
2023-05-06T01:53:45.857Z,3.67
2023-05-06T01:56:14.565Z,3.50
2023-05-06T01:58:43.693Z,3.70
2023-05-06T02:01:11.465Z,3.30
2023-05-06T02:03:39.456Z,3.50
2023-05-06T02:06:07.343Z,3.27
2023-05-06T02:08:35.058Z,4.03
2023-05-06T02:11:02.771Z,4.17
2023-05-06T02:13:30.510Z,3.30
2023-05-06T02:15:59.621Z,3.87
2023-05-06T02:18:27.672Z,4.23
2023-05-06T02:20:55.388Z,4.13
2023-05-06T02:23:23.099Z,3.70
2023-05-06T02:25:51.872Z,3.70
2023-05-06T02:28:19.603Z,3.17
2023-05-06T02:30:47.382Z,3.80
2023-05-06T02:33:16.430Z,3.83
2023-05-06T02:35:44.147Z,3.83
2023-05-06T02:38:11.835Z,3.77
2023-05-06T02:40:42.394Z,3.67
2023-05-06T02:43:10.098Z,3.50
2023-05-06T02:45:37.798Z,3.70
2023-05-06T02:48:05.841Z,3.93
2023-05-06T02:50:35.031Z,4.43
2023-05-06T02:53:02.746Z,4.10
2023-05-06T02:55:30.673Z,4.37
2023-05-06T02:57:58.388Z,4.23
2023-05-06T03:00:26.130Z,4.17
2023-05-06T03:02:53.836Z,4.10
2023-05-06T03:05:21.603Z,3.90
2023-05-06T03:07:50.736Z,4.20
2023-05-06T03:10:18.617Z,4.40
2023-05-06T03:12:46.352Z,4.60
2023-05-06T03:15:14.029Z,4.60
2023-05-06T03:17:41.751Z,4.60
2023-05-06T03:20:10.147Z,4.63
2023-05-06T03:22:37.880Z,4.30
2023-05-06T03:25:07.887Z,3.87
2023-05-06T03:27:35.759Z,4.87
2023-05-06T03:30:03.601Z,4.70
2023-05-06T03:32:31.911Z,4.50
2023-05-06T03:34:59.653Z,4.47
2023-05-06T03:37:27.352Z,4.50
2023-05-06T03:39:55.052Z,5.90
2023-05-06T03:42:24.165Z,5.03
2023-05-06T03:44:51.902Z,5.13
2023-05-06T03:47:19.687Z,5.37
2023-05-06T03:49:47.374Z,6.27
2023-05-06T03:52:15.065Z,7.23
2023-05-06T03:54:42.749Z,6.97
2023-05-06T03:57:10.457Z,7.20
2023-05-06T03:59:39.550Z,7.23
2023-05-06T04:02:07.343Z,7.33
2023-05-06T04:04:35.389Z,7.90
2023-05-06T04:07:03.843Z,8.17
2023-05-06T04:09:32.925Z,7.40
2023-05-06T04:12:00.662Z,7.93
2023-05-06T04:14:28.332Z,6.70
2023-05-06T04:16:57.418Z,7.60
2023-05-06T04:19:25.175Z,9.17
2023-05-06T04:21:52.883Z,9.77
2023-05-06T04:24:21.532Z,8.13
2023-05-06T04:26:49.209Z,9.60
2023-05-06T04:29:16.921Z,9.13
2023-05-06T04:31:44.573Z,9.67
2023-05-06T04:34:13.728Z,10.50
2023-05-06T04:36:41.969Z,9.60
2023-05-06T04:39:10.521Z,10.30
2023-05-06T04:41:38.268Z,10.20
2023-05-06T04:44:06.160Z,10.30
2023-05-06T04:46:34.076Z,10.77
2023-05-06T04:49:01.781Z,10.47
2023-05-06T04:51:31.664Z,11.20
2023-05-06T04:53:59.375Z,12.00
2023-05-06T04:56:27.784Z,12.67
2023-05-06T04:58:55.595Z,13.00
2023-05-06T05:01:23.381Z,13.93
2023-05-06T05:03:51.169Z,13.77
2023-05-06T05:06:18.888Z,13.37
2023-05-06T05:08:47.954Z,13.63
2023-05-06T05:11:15.646Z,13.53
2023-05-06T05:13:43.352Z,14.00
2023-05-06T05:16:11.038Z,12.40
2023-05-06T05:18:38.726Z,13.67
2023-05-06T05:21:06.455Z,14.03
2023-05-06T05:23:34.176Z,15.37
2023-05-06T05:26:04.539Z,13.93
2023-05-06T05:28:33.348Z,10.97
2023-05-06T05:31:02.906Z,9.83
2023-05-06T05:33:30.768Z,10.30
2023-05-06T05:35:58.809Z,11.17
2023-05-06T05:38:26.501Z,10.40
2023-05-06T05:40:54.195Z,11.17
2023-05-06T05:43:25.991Z,11.27
2023-05-06T05:45:53.765Z,10.87
2023-05-06T05:48:21.574Z,10.00
2023-05-06T05:50:49.274Z,10.80
2023-05-06T05:53:17.337Z,10.77
2023-05-06T05:55:44.995Z,10.87
2023-05-06T05:58:12.857Z,10.63
2023-05-06T06:00:42.091Z,10.90
2023-05-06T06:03:09.932Z,9.17
2023-05-06T06:05:37.756Z,10.07
2023-05-06T06:08:05.819Z,9.23
2023-05-06T06:10:33.530Z,9.57
2023-05-06T06:13:01.295Z,10.13
2023-05-06T06:15:29.357Z,10.63
2023-05-06T06:17:58.521Z,10.20
2023-05-06T06:20:26.634Z,10.10
2023-05-06T06:22:54.394Z,10.27
2023-05-06T06:25:22.518Z,9.90
2023-05-06T06:27:50.185Z,11.17
2023-05-06T06:30:17.881Z,10.57
2023-05-06T06:32:51.856Z,10.10
2023-05-06T06:35:21.061Z,9.70
2023-05-06T06:37:48.824Z,10.90
2023-05-06T06:40:16.546Z,9.50
2023-05-06T06:42:44.330Z,10.00
2023-05-06T06:45:12.622Z,9.90
2023-05-06T06:47:40.981Z,9.83
2023-05-06T06:50:09.872Z,10.80
2023-05-06T06:52:38.994Z,10.37
2023-05-06T06:55:07.114Z,10.60
2023-05-06T06:57:34.846Z,9.03
2023-05-06T07:00:02.576Z,10.33
2023-05-06T07:02:30.451Z,8.53
2023-05-06T07:04:58.184Z,9.00
2023-05-06T07:07:25.891Z,10.03
2023-05-06T07:09:54.948Z,9.70
2023-05-06T07:12:24.487Z,9.07
2023-05-06T07:14:52.190Z,8.83
2023-05-06T07:17:20.011Z,8.13
2023-05-06T07:19:47.768Z,9.17
2023-05-06T07:22:15.451Z,8.30
2023-05-06T07:24:43.203Z,8.13
2023-05-06T07:27:12.294Z,8.63
2023-05-06T07:29:39.945Z,8.33
2023-05-06T07:32:07.731Z,8.20
2023-05-06T07:34:36.183Z,7.40
2023-05-06T07:37:04.565Z,8.10
2023-05-06T07:39:32.428Z,8.53
2023-05-06T07:42:00.158Z,8.33
2023-05-06T07:44:29.226Z,8.27
2023-05-06T07:46:57.086Z,7.17
2023-05-06T07:49:25.444Z,7.13
2023-05-06T07:51:53.177Z,7.33
2023-05-06T07:54:20.901Z,6.43
2023-05-06T07:56:48.585Z,7.07
2023-05-06T07:59:16.298Z,7.30
2023-05-06T08:01:45.867Z,6.70
2023-05-06T08:04:13.771Z,5.77
2023-05-06T08:06:41.554Z,6.20
2023-05-06T08:09:10.172Z,6.20
2023-05-06T08:11:39.008Z,6.27
2023-05-06T08:14:06.744Z,6.50
2023-05-06T08:16:34.441Z,6.57
2023-05-06T08:19:03.622Z,5.40
2023-05-06T08:21:31.330Z,5.93
2023-05-06T08:23:59.013Z,6.10
2023-05-06T08:26:26.715Z,6.13
2023-05-06T08:28:55.869Z,5.97
2023-05-06T08:31:23.712Z,6.30
2023-05-06T08:33:53.877Z,6.30
2023-05-06T08:36:23.622Z,5.53
2023-05-06T08:38:51.599Z,6.10
2023-05-06T08:41:20.169Z,6.10
2023-05-06T08:43:48.845Z,5.47
2023-05-06T08:46:16.853Z,5.53
2023-05-06T08:48:45.007Z,5.70
2023-05-06T08:51:14.133Z,5.90
2023-05-06T08:53:43.852Z,5.53
2023-05-06T08:56:13.811Z,5.33
2023-05-06T08:58:45.596Z,5.23
2023-05-06T09:01:13.398Z,5.50
2023-05-06T09:03:41.194Z,5.37
2023-05-06T09:06:10.190Z,5.57
2023-05-06T09:08:37.910Z,6.00
2023-05-06T09:11:20.200Z,5.23
2023-05-06T09:13:47.902Z,5.43
2023-05-06T09:16:27.636Z,6.00
2023-05-06T09:18:55.346Z,5.60
2023-05-06T09:21:23.076Z,5.90
2023-05-06T09:23:50.847Z,4.97
2023-05-06T09:26:19.999Z,5.57
2023-05-06T09:28:48.066Z,6.13
2023-05-06T09:31:16.246Z,6.30
2023-05-06T09:33:44.040Z,5.97
2023-05-06T09:36:13.525Z,5.13
2023-05-06T09:38:41.625Z,6.53
2023-05-06T09:41:09.508Z,6.60
2023-05-06T09:43:41.857Z,7.10
2023-05-06T09:46:09.872Z,6.20
2023-05-06T09:48:37.867Z,7.00
2023-05-06T09:51:07.199Z,7.60
2023-05-06T09:53:37.193Z,7.60
2023-05-06T09:56:05.500Z,7.67
2023-05-06T09:58:33.521Z,7.17
2023-05-06T10:01:04.017Z,8.20
2023-05-06T10:03:32.359Z,8.13
2023-05-06T10:06:02.140Z,7.60
2023-05-06T10:08:30.620Z,7.90
2023-05-06T10:10:58.316Z,6.70
2023-05-06T10:13:27.036Z,7.27
2023-05-06T10:15:55.335Z,7.50
2023-05-06T10:18:25.925Z,7.20
2023-05-06T10:20:55.415Z,5.40
2023-05-06T10:23:28.292Z,6.27
2023-05-06T10:25:57.658Z,6.60
2023-05-06T10:28:31.576Z,6.30
2023-05-06T10:31:00.372Z,7.47
2023-05-06T10:33:29.716Z,7.40
2023-05-06T10:36:03.227Z,6.77
2023-05-06T10:38:33.928Z,6.30
2023-05-06T10:41:02.123Z,5.63
2023-05-06T10:43:30.912Z,6.20
2023-05-06T10:46:06.046Z,6.63
2023-05-06T10:48:35.147Z,6.67
2023-05-06T10:51:21.641Z,6.60
2023-05-06T10:54:00.430Z,6.03
2023-05-06T10:56:28.119Z,5.17
2023-05-06T10:58:56.631Z,5.77
2023-05-06T11:01:24.478Z,6.10
2023-05-06T11:03:53.603Z,6.50
2023-05-06T11:06:35.669Z,6.70
2023-05-06T11:09:05.054Z,6.63
2023-05-06T11:11:47.591Z,6.20
2023-05-06T11:14:15.579Z,6.30
2023-05-06T11:16:49.476Z,7.43
2023-05-06T11:19:22.533Z,8.17
2023-05-06T11:21:50.813Z,6.60
2023-05-06T11:24:23.761Z,7.10
2023-05-06T11:26:51.668Z,7.43
2023-05-06T11:29:19.741Z,5.10
2023-05-06T11:31:47.593Z,4.50
2023-05-06T11:34:19.928Z,3.87
2023-05-06T11:36:49.901Z,4.40
2023-05-06T11:39:17.617Z,4.30
2023-05-06T11:41:45.320Z,4.97
2023-05-06T11:44:25.150Z,4.70
2023-05-06T11:46:53.344Z,5.07
2023-05-06T11:49:21.023Z,5.10
2023-05-06T11:51:50.641Z,4.90
2023-05-06T11:54:20.389Z,6.13
2023-05-06T11:56:49.008Z,5.70
2023-05-06T11:59:16.742Z,6.17
2023-05-06T12:01:44.715Z,5.27
2023-05-06T12:04:13.214Z,5.63
2023-05-06T12:06:41.328Z,6.70
2023-05-06T12:09:11.513Z,7.03
2023-05-06T12:11:39.971Z,7.43
2023-05-06T12:14:08.387Z,7.33
2023-05-06T12:16:36.386Z,7.43
2023-05-06T12:19:04.368Z,7.60
2023-05-06T12:21:33.111Z,7.70
2023-05-06T12:24:01.338Z,7.53
2023-05-06T12:26:43.190Z,7.50
2023-05-06T12:29:12.796Z,7.47
2023-05-06T12:31:40.578Z,8.10
2023-05-06T12:34:08.340Z,8.50
2023-05-06T12:36:40.233Z,8.70
2023-05-06T12:39:08.749Z,8.50
2023-05-06T12:41:39.001Z,8.90
2023-05-06T12:44:21.573Z,7.53
2023-05-06T12:46:53.033Z,8.30
2023-05-06T12:49:20.721Z,8.10
2023-05-06T12:51:48.441Z,8.50
2023-05-06T12:54:36.728Z,9.37
2023-05-06T12:57:06.167Z,8.10
2023-05-06T12:59:34.046Z,8.20
2023-05-06T13:02:01.786Z,7.67
2023-05-06T13:04:29.520Z,7.10
2023-05-06T13:06:57.369Z,6.40
2023-05-06T13:09:25.640Z,7.33
2023-05-06T13:11:53.417Z,7.20
2023-05-06T13:14:22.711Z,7.30
2023-05-06T13:16:50.696Z,7.00
2023-05-06T13:19:31.642Z,6.33
2023-05-06T13:22:00.727Z,7.50
2023-05-06T13:24:28.757Z,6.00
2023-05-06T13:26:57.639Z,6.23
2023-05-06T13:29:26.825Z,6.27
2023-05-06T13:31:54.639Z,6.03
2023-05-06T13:34:28.171Z,5.93
2023-05-06T13:36:56.794Z,4.60
2023-05-06T13:39:25.057Z,4.80
2023-05-06T13:41:53.035Z,3.90
2023-05-06T13:44:21.488Z,3.47
2023-05-06T13:46:50.830Z,3.27
2023-05-06T13:49:19.170Z,3.40
2023-05-06T13:51:46.876Z,3.47
2023-05-06T13:54:14.597Z,3.20
2023-05-06T13:56:42.361Z,2.97
2023-05-06T13:59:11.772Z,2.60
2023-05-06T14:01:39.808Z,2.70
2023-05-06T14:04:08.996Z,2.40
2023-05-06T14:06:36.700Z,2.40
2023-05-06T14:09:04.800Z,2.30
2023-05-06T14:11:32.593Z,2.30
2023-05-06T14:14:00.438Z,2.40
2023-05-06T14:16:28.257Z,2.10
2023-05-06T14:18:56.074Z,2.30
2023-05-06T14:21:25.333Z,2.37
2023-05-06T14:23:53.091Z,2.10
2023-05-06T14:26:21.136Z,2.00
2023-05-06T14:28:49.867Z,2.00
2023-05-06T14:31:17.597Z,1.93
2023-05-06T14:33:45.356Z,2.13
2023-05-06T14:36:18.532Z,1.90
2023-05-06T14:38:47.631Z,1.83
2023-05-06T14:41:15.343Z,2.00
2023-05-06T14:43:43.109Z,2.00
2023-05-06T14:46:11.388Z,2.23
2023-05-06T14:48:39.158Z,2.00
2023-05-06T14:51:06.939Z,1.90
2023-05-06T14:53:34.654Z,2.00
2023-05-06T14:56:03.793Z,1.97
2023-05-06T14:58:31.985Z,1.93
2023-05-06T15:00:59.741Z,1.90
2023-05-06T15:03:27.506Z,1.90
2023-05-06T15:05:55.335Z,2.10
2023-05-06T15:08:24.492Z,2.30
2023-05-06T15:10:52.226Z,2.40
2023-05-06T15:13:21.566Z,2.60
2023-05-06T15:15:49.374Z,2.90
2023-05-06T15:18:17.099Z,2.90
2023-05-06T15:20:44.801Z,2.70
2023-05-06T15:23:12.493Z,2.60
2023-05-06T15:25:40.503Z,2.63
2023-05-06T15:28:08.472Z,2.20
2023-05-06T15:30:39.473Z,2.00
2023-05-06T15:33:07.249Z,1.90
2023-05-06T15:35:35.532Z,1.80
2023-05-06T15:38:04.115Z,1.70
2023-05-06T15:40:31.951Z,1.60
2023-05-06T15:42:59.793Z,1.73
2023-05-06T15:45:27.512Z,1.60
2023-05-06T15:47:56.679Z,1.70
2023-05-06T15:50:32.909Z,1.60
2023-05-06T15:53:02.649Z,1.70
2023-05-06T15:55:35.232Z,2.00
2023-05-06T15:58:11.677Z,2.00
2023-05-06T16:00:39.401Z,2.10
2023-05-06T16:03:11.677Z,2.40
2023-05-06T16:05:40.408Z,2.30
2023-05-06T16:08:08.205Z,2.33
2023-05-06T16:10:36.100Z,2.43
2023-05-06T16:13:03.893Z,2.70
2023-05-06T16:15:31.715Z,2.90
2023-05-06T16:17:59.673Z,2.77
2023-05-06T16:20:29.698Z,3.20
2023-05-06T16:22:57.595Z,3.30
2023-05-06T16:25:25.512Z,3.63
2023-05-06T16:27:53.582Z,3.50
2023-05-06T16:30:21.557Z,3.27
2023-05-06T16:32:49.388Z,3.40
2023-05-06T16:35:17.648Z,3.77
2023-05-06T16:37:46.860Z,3.70
2023-05-06T16:40:15.396Z,3.53
2023-05-06T16:42:43.170Z,4.10
2023-05-06T16:45:11.542Z,3.67
2023-05-06T16:47:39.748Z,3.53
2023-05-06T16:50:08.283Z,3.60
2023-05-06T16:52:36.543Z,3.90
2023-05-06T16:55:06.246Z,3.70
2023-05-06T16:57:34.110Z,2.90
2023-05-06T17:00:02.143Z,3.30
2023-05-06T17:02:29.912Z,3.70
2023-05-06T17:04:57.896Z,3.50
2023-05-06T17:07:26.061Z,3.60
2023-05-06T17:09:54.001Z,3.60
2023-05-06T17:12:23.932Z,3.43
2023-05-06T17:14:51.666Z,3.60
2023-05-06T17:17:21.730Z,3.40
2023-05-06T17:19:49.552Z,3.20
2023-05-06T17:22:17.271Z,3.43
2023-05-06T17:24:44.959Z,3.40
2023-05-06T17:27:12.726Z,3.53
2023-05-06T17:29:41.842Z,3.70
2023-05-06T17:32:09.558Z,3.50
2023-05-06T17:34:37.818Z,3.47
2023-05-06T17:37:05.614Z,3.60
2023-05-06T17:39:38.262Z,3.40
2023-05-06T17:42:06.027Z,3.40
2023-05-06T17:44:35.373Z,3.30
2023-05-06T17:47:04.538Z,3.50
2023-05-06T17:49:34.419Z,3.30
2023-05-06T17:52:02.208Z,3.30
2023-05-06T17:54:32.273Z,3.00
2023-05-06T17:57:00.901Z,3.20
2023-05-06T17:59:29.191Z,3.40
2023-05-06T18:01:57.052Z,3.60
2023-05-06T18:04:26.375Z,3.30
2023-05-06T18:06:54.120Z,3.50
2023-05-06T18:09:21.819Z,3.80
2023-05-06T18:11:49.673Z,3.50
2023-05-06T18:14:17.482Z,3.57
2023-05-06T18:16:45.565Z,3.50
2023-05-06T18:19:13.476Z,3.80
2023-05-06T18:21:42.751Z,3.87
2023-05-06T18:24:16.593Z,3.70
2023-05-06T18:26:46.048Z,3.60
2023-05-06T18:29:14.406Z,3.60
2023-05-06T18:31:42.304Z,3.43
2023-05-06T18:34:10.426Z,3.50
2023-05-06T18:36:38.285Z,3.60
2023-05-06T18:39:08.100Z,3.70
2023-05-06T18:41:36.004Z,3.70
2023-05-06T18:44:04.349Z,3.80
2023-05-06T18:46:32.160Z,3.50
2023-05-06T18:49:01.085Z,3.43
2023-05-06T18:51:29.012Z,3.67
2023-05-06T18:53:56.891Z,3.27
2023-05-06T18:56:26.169Z,3.50
2023-05-06T18:58:53.919Z,3.40
2023-05-06T19:01:21.900Z,3.60
2023-05-06T19:03:49.900Z,3.70
2023-05-06T19:06:17.667Z,4.10
2023-05-06T19:08:47.015Z,4.20
2023-05-06T19:11:15.628Z,4.67
2023-05-06T19:13:45.155Z,4.67
2023-05-06T19:16:13.035Z,4.70
2023-05-06T19:18:40.957Z,4.50
2023-05-06T19:21:10.032Z,4.30
2023-05-06T19:23:37.945Z,4.50
2023-05-06T19:26:06.689Z,3.63
2023-05-06T19:28:34.808Z,3.60
2023-05-06T19:31:07.051Z,3.73
2023-05-06T19:33:34.958Z,3.50
2023-05-06T19:36:02.896Z,3.70
2023-05-06T19:38:30.684Z,3.70
2023-05-06T19:40:58.656Z,4.10
2023-05-06T19:43:26.492Z,3.53
2023-05-06T19:45:54.311Z,3.60
2023-05-06T19:48:23.969Z,3.50
2023-05-06T19:50:54.033Z,3.57
2023-05-06T19:53:22.875Z,3.27
2023-05-06T19:55:53.731Z,3.27
2023-05-06T19:58:21.491Z,4.03
2023-05-06T20:00:49.616Z,3.27
2023-05-06T20:03:17.408Z,3.53
2023-05-06T20:05:46.668Z,3.03
2023-05-06T20:08:14.393Z,3.40
2023-05-06T20:10:42.131Z,3.27
2023-05-06T20:13:11.937Z,4.10
2023-05-06T20:15:39.737Z,3.50
2023-05-06T20:18:07.487Z,3.70
2023-05-06T20:20:36.092Z,3.40
2023-05-06T20:23:05.242Z,3.20
2023-05-06T20:25:33.988Z,3.20
2023-05-06T20:28:03.293Z,3.40
2023-05-06T20:30:31.129Z,4.10
2023-05-06T20:33:00.271Z,4.10
2023-05-06T20:35:28.168Z,4.17
2023-05-06T20:37:55.944Z,3.60
2023-05-06T20:40:25.180Z,3.30
2023-05-06T20:42:52.864Z,3.30
2023-05-06T20:45:20.700Z,3.10
2023-05-06T20:47:48.437Z,3.90
2023-05-06T20:50:17.500Z,3.50
2023-05-06T20:52:45.970Z,3.43
2023-05-06T20:55:14.783Z,3.53
2023-05-06T20:57:47.059Z,4.10
2023-05-06T21:00:14.836Z,4.13
2023-05-06T21:02:42.779Z,3.87
2023-05-06T21:05:11.016Z,3.27
2023-05-06T21:07:39.115Z,3.50
2023-05-06T21:10:07.148Z,3.33
2023-05-06T21:12:34.899Z,3.03
2023-05-06T21:15:04.056Z,3.73
2023-05-06T21:17:31.885Z,4.10
2023-05-06T21:19:59.657Z,4.10
2023-05-06T21:22:27.394Z,3.20
2023-05-06T21:24:56.621Z,3.30
2023-05-06T21:27:24.391Z,3.60
2023-05-06T21:29:52.104Z,3.03
2023-05-06T21:32:21.329Z,3.17
2023-05-06T21:34:49.154Z,2.90
2023-05-06T21:37:16.893Z,3.17
2023-05-06T21:39:44.618Z,3.33
2023-05-06T21:42:12.336Z,3.30
2023-05-06T21:44:40.105Z,3.30
2023-05-06T21:47:07.820Z,3.20
2023-05-06T21:49:36.975Z,3.13
2023-05-06T21:52:06.418Z,3.20
2023-05-06T21:54:34.192Z,3.17
2023-05-06T21:57:02.309Z,3.07
2023-05-06T21:59:30.069Z,2.80
2023-05-06T22:01:57.865Z,3.00
2023-05-06T22:04:26.351Z,2.93
2023-05-06T22:06:56.958Z,2.70
2023-05-06T22:09:24.646Z,3.00
2023-05-06T22:11:52.429Z,3.07
2023-05-06T22:14:24.336Z,2.97
2023-05-06T22:16:54.974Z,3.27
2023-05-06T22:19:22.737Z,3.30
2023-05-06T22:21:50.642Z,3.10
2023-05-06T22:24:19.847Z,3.00
2023-05-06T22:26:47.645Z,3.30
2023-05-06T22:29:15.542Z,3.50
2023-05-06T22:31:43.300Z,3.47
2023-05-06T22:34:11.019Z,3.20
2023-05-06T22:36:38.695Z,2.97
2023-05-06T22:39:06.752Z,3.30
2023-05-06T22:41:35.858Z,3.17
2023-05-06T22:44:03.601Z,3.00
2023-05-06T22:46:31.644Z,3.17
2023-05-06T22:49:00.160Z,3.10
2023-05-06T22:51:28.064Z,3.30
2023-05-06T22:53:55.818Z,3.13
2023-05-06T22:56:23.510Z,3.30
2023-05-06T22:58:53.215Z,3.40
2023-05-06T23:01:20.995Z,3.33
2023-05-06T23:03:48.833Z,3.57
2023-05-06T23:06:16.640Z,3.13
2023-05-06T23:08:44.358Z,3.20
2023-05-06T23:11:12.071Z,3.17
2023-05-06T23:13:39.794Z,2.90
2023-05-06T23:16:10.315Z,3.13
2023-05-06T23:18:38.047Z,3.20
2023-05-06T23:21:05.977Z,3.17
2023-05-06T23:23:34.063Z,3.17
2023-05-06T23:26:01.829Z,3.10
2023-05-06T23:28:29.582Z,3.20
2023-05-06T23:30:57.520Z,3.33
2023-05-06T23:33:26.797Z,3.30
2023-05-06T23:35:54.515Z,3.20
2023-05-06T23:38:22.266Z,3.40
2023-05-06T23:40:53.135Z,3.40
2023-05-06T23:43:21.170Z,3.47
2023-05-06T23:45:48.874Z,3.40
2023-05-06T23:48:16.595Z,3.50
2023-05-06T23:50:45.691Z,3.30
2023-05-06T23:53:14.714Z,3.20
2023-05-06T23:55:43.201Z,3.13
2023-05-06T23:58:10.971Z,3.20
